sensor_id;sensor_type;location;lat;lon;timestamp;P1;durP1;ratioP1;P2;durP2;ratioP2
5456;SDS011;2751;49.802;9.944;2023-06-14T00:01:08;4.70;;;4.30;;
5456;SDS011;2751;49.802;9.944;2023-06-14T00:03:38;6.30;;;5.10;;
5456;SDS011;2751;49.802;9.944;2023-06-14T00:06:05;6.13;;;4.73;;
5456;SDS011;2751;49.802;9.944;2023-06-14T00:08:32;9.90;;;5.27;;
5456;SDS011;2751;49.802;9.944;2023-06-14T00:10:59;8.37;;;4.70;;
5456;SDS011;2751;49.802;9.944;2023-06-14T00:13:28;5.47;;;4.97;;
5456;SDS011;2751;49.802;9.944;2023-06-14T00:15:55;8.23;;;5.57;;
5456;SDS011;2751;49.802;9.944;2023-06-14T00:18:21;5.97;;;4.63;;
5456;SDS011;2751;49.802;9.944;2023-06-14T00:20:51;9.93;;;5.20;;
5456;SDS011;2751;49.802;9.944;2023-06-14T00:23:18;5.53;;;5.07;;
5456;SDS011;2751;49.802;9.944;2023-06-14T00:25:45;7.70;;;4.90;;
5456;SDS011;2751;49.802;9.944;2023-06-14T00:28:12;6.67;;;4.93;;
5456;SDS011;2751;49.802;9.944;2023-06-14T00:30:41;5.87;;;5.30;;
5456;SDS011;2751;49.802;9.944;2023-06-14T00:33:09;5.73;;;4.93;;
5456;SDS011;2751;49.802;9.944;2023-06-14T00:35:36;5.23;;;4.83;;
5456;SDS011;2751;49.802;9.944;2023-06-14T00:38:02;9.43;;;5.07;;
5456;SDS011;2751;49.802;9.944;2023-06-14T00:40:29;5.47;;;5.07;;
5456;SDS011;2751;49.802;9.944;2023-06-14T00:42:56;5.90;;;4.90;;
5456;SDS011;2751;49.802;9.944;2023-06-14T00:45:23;6.00;;;4.97;;
5456;SDS011;2751;49.802;9.944;2023-06-14T00:47:51;6.53;;;5.07;;
5456;SDS011;2751;49.802;9.944;2023-06-14T00:50:20;5.20;;;4.70;;
5456;SDS011;2751;49.802;9.944;2023-06-14T00:52:48;4.90;;;4.50;;
5456;SDS011;2751;49.802;9.944;2023-06-14T00:55:15;9.23;;;4.57;;
5456;SDS011;2751;49.802;9.944;2023-06-14T00:57:42;6.67;;;4.90;;
5456;SDS011;2751;49.802;9.944;2023-06-14T01:00:11;5.27;;;4.60;;
5456;SDS011;2751;49.802;9.944;2023-06-14T01:02:39;7.93;;;4.80;;
5456;SDS011;2751;49.802;9.944;2023-06-14T01:05:09;5.70;;;5.10;;
5456;SDS011;2751;49.802;9.944;2023-06-14T01:07:41;11.30;;;4.80;;
5456;SDS011;2751;49.802;9.944;2023-06-14T01:10:23;8.00;;;4.23;;
5456;SDS011;2751;49.802;9.944;2023-06-14T01:13:03;5.23;;;4.73;;
5456;SDS011;2751;49.802;9.944;2023-06-14T01:15:36;4.90;;;4.40;;
5456;SDS011;2751;49.802;9.944;2023-06-14T01:18:04;5.07;;;4.50;;
5456;SDS011;2751;49.802;9.944;2023-06-14T01:20:33;6.67;;;4.40;;
5456;SDS011;2751;49.802;9.944;2023-06-14T01:23:04;6.60;;;4.40;;
5456;SDS011;2751;49.802;9.944;2023-06-14T01:25:31;5.20;;;4.70;;
5456;SDS011;2751;49.802;9.944;2023-06-14T01:28:05;8.63;;;4.87;;
5456;SDS011;2751;49.802;9.944;2023-06-14T01:30:35;8.37;;;4.67;;
5456;SDS011;2751;49.802;9.944;2023-06-14T01:33:04;5.10;;;4.60;;
5456;SDS011;2751;49.802;9.944;2023-06-14T01:35:31;5.70;;;4.83;;
5456;SDS011;2751;49.802;9.944;2023-06-14T01:37:58;5.33;;;4.60;;
5456;SDS011;2751;49.802;9.944;2023-06-14T01:40:27;4.63;;;4.20;;
5456;SDS011;2751;49.802;9.944;2023-06-14T01:42:54;5.23;;;4.80;;
5456;SDS011;2751;49.802;9.944;2023-06-14T01:45:22;7.63;;;4.57;;
5456;SDS011;2751;49.802;9.944;2023-06-14T01:47:49;5.93;;;4.90;;
5456;SDS011;2751;49.802;9.944;2023-06-14T01:50:16;5.33;;;4.30;;
5456;SDS011;2751;49.802;9.944;2023-06-14T01:52:46;4.83;;;4.43;;
5456;SDS011;2751;49.802;9.944;2023-06-14T01:55:13;5.53;;;5.03;;
5456;SDS011;2751;49.802;9.944;2023-06-14T01:57:44;8.70;;;5.17;;
5456;SDS011;2751;49.802;9.944;2023-06-14T02:00:11;10.40;;;5.03;;
5456;SDS011;2751;49.802;9.944;2023-06-14T02:02:39;8.20;;;4.50;;
5456;SDS011;2751;49.802;9.944;2023-06-14T02:05:06;7.50;;;5.17;;
5456;SDS011;2751;49.802;9.944;2023-06-14T02:07:34;5.57;;;5.00;;
5456;SDS011;2751;49.802;9.944;2023-06-14T02:10:00;5.33;;;4.87;;
5456;SDS011;2751;49.802;9.944;2023-06-14T02:12:28;8.40;;;4.97;;
5456;SDS011;2751;49.802;9.944;2023-06-14T02:14:56;5.30;;;4.80;;
5456;SDS011;2751;49.802;9.944;2023-06-14T02:17:23;5.70;;;5.07;;
5456;SDS011;2751;49.802;9.944;2023-06-14T02:19:51;5.83;;;4.87;;
5456;SDS011;2751;49.802;9.944;2023-06-14T02:22:18;11.13;;;5.00;;
5456;SDS011;2751;49.802;9.944;2023-06-14T02:24:46;9.10;;;5.30;;
5456;SDS011;2751;49.802;9.944;2023-06-14T02:27:13;6.13;;;5.53;;
5456;SDS011;2751;49.802;9.944;2023-06-14T02:29:40;5.30;;;4.80;;
5456;SDS011;2751;49.802;9.944;2023-06-14T02:32:09;7.37;;;5.37;;
5456;SDS011;2751;49.802;9.944;2023-06-14T02:34:35;6.40;;;5.03;;
5456;SDS011;2751;49.802;9.944;2023-06-14T02:37:05;6.17;;;4.73;;
5456;SDS011;2751;49.802;9.944;2023-06-14T02:39:33;6.93;;;4.77;;
5456;SDS011;2751;49.802;9.944;2023-06-14T02:41:59;5.60;;;5.10;;
5456;SDS011;2751;49.802;9.944;2023-06-14T02:44:26;4.97;;;4.57;;
5456;SDS011;2751;49.802;9.944;2023-06-14T02:46:53;7.70;;;4.53;;
5456;SDS011;2751;49.802;9.944;2023-06-14T02:49:22;7.70;;;5.40;;
5456;SDS011;2751;49.802;9.944;2023-06-14T02:51:49;6.77;;;4.60;;
5456;SDS011;2751;49.802;9.944;2023-06-14T02:54:15;6.23;;;4.60;;
5456;SDS011;2751;49.802;9.944;2023-06-14T02:56:42;6.30;;;5.17;;
5456;SDS011;2751;49.802;9.944;2023-06-14T02:59:09;5.43;;;4.93;;
5456;SDS011;2751;49.802;9.944;2023-06-14T03:01:38;11.43;;;4.93;;
5456;SDS011;2751;49.802;9.944;2023-06-14T03:04:06;5.80;;;4.80;;
5456;SDS011;2751;49.802;9.944;2023-06-14T03:06:34;5.70;;;5.20;;
5456;SDS011;2751;49.802;9.944;2023-06-14T03:09:01;9.37;;;5.43;;
5456;SDS011;2751;49.802;9.944;2023-06-14T03:11:29;6.97;;;5.37;;
5456;SDS011;2751;49.802;9.944;2023-06-14T03:13:56;10.60;;;5.07;;
5456;SDS011;2751;49.802;9.944;2023-06-14T03:16:24;8.40;;;5.20;;
5456;SDS011;2751;49.802;9.944;2023-06-14T03:18:54;5.17;;;4.60;;
5456;SDS011;2751;49.802;9.944;2023-06-14T03:21:21;5.53;;;5.03;;
5456;SDS011;2751;49.802;9.944;2023-06-14T03:23:49;6.50;;;5.90;;
5456;SDS011;2751;49.802;9.944;2023-06-14T03:26:16;5.23;;;4.83;;
5456;SDS011;2751;49.802;9.944;2023-06-14T03:28:43;10.30;;;4.60;;
5456;SDS011;2751;49.802;9.944;2023-06-14T03:31:11;6.33;;;5.23;;
5456;SDS011;2751;49.802;9.944;2023-06-14T03:33:37;4.97;;;4.57;;
5456;SDS011;2751;49.802;9.944;2023-06-14T03:36:05;4.70;;;4.23;;
5456;SDS011;2751;49.802;9.944;2023-06-14T03:38:33;5.90;;;5.00;;
5456;SDS011;2751;49.802;9.944;2023-06-14T03:41:01;6.53;;;4.97;;
5456;SDS011;2751;49.802;9.944;2023-06-14T03:43:28;8.00;;;5.80;;
5456;SDS011;2751;49.802;9.944;2023-06-14T03:45:55;6.93;;;5.07;;
5456;SDS011;2751;49.802;9.944;2023-06-14T03:48:22;6.07;;;5.53;;
5456;SDS011;2751;49.802;9.944;2023-06-14T03:50:49;6.17;;;5.57;;
5456;SDS011;2751;49.802;9.944;2023-06-14T03:53:16;5.60;;;5.10;;
5456;SDS011;2751;49.802;9.944;2023-06-14T03:55:45;6.93;;;4.47;;
5456;SDS011;2751;49.802;9.944;2023-06-14T03:58:14;8.10;;;4.53;;
5456;SDS011;2751;49.802;9.944;2023-06-14T04:00:41;8.70;;;5.23;;
5456;SDS011;2751;49.802;9.944;2023-06-14T04:03:08;15.13;;;5.23;;
5456;SDS011;2751;49.802;9.944;2023-06-14T04:05:35;5.87;;;5.20;;
5456;SDS011;2751;49.802;9.944;2023-06-14T04:08:02;21.57;;;6.13;;
5456;SDS011;2751;49.802;9.944;2023-06-14T04:10:29;5.93;;;5.13;;
5456;SDS011;2751;49.802;9.944;2023-06-14T04:12:56;5.90;;;4.40;;
5456;SDS011;2751;49.802;9.944;2023-06-14T04:15:24;6.53;;;5.60;;
5456;SDS011;2751;49.802;9.944;2023-06-14T04:17:53;10.80;;;5.50;;
5456;SDS011;2751;49.802;9.944;2023-06-14T04:20:22;5.10;;;4.60;;
5456;SDS011;2751;49.802;9.944;2023-06-14T04:22:50;5.53;;;5.03;;
5456;SDS011;2751;49.802;9.944;2023-06-14T04:25:17;5.83;;;5.00;;
5456;SDS011;2751;49.802;9.944;2023-06-14T04:27:44;6.13;;;4.87;;
5456;SDS011;2751;49.802;9.944;2023-06-14T04:30:12;5.90;;;5.30;;
5456;SDS011;2751;49.802;9.944;2023-06-14T04:32:40;5.73;;;5.10;;
5456;SDS011;2751;49.802;9.944;2023-06-14T04:35:07;7.73;;;4.60;;
5456;SDS011;2751;49.802;9.944;2023-06-14T04:37:35;5.63;;;4.93;;
5456;SDS011;2751;49.802;9.944;2023-06-14T04:40:05;5.63;;;5.13;;
5456;SDS011;2751;49.802;9.944;2023-06-14T04:42:33;6.93;;;5.23;;
5456;SDS011;2751;49.802;9.944;2023-06-14T04:45:02;7.80;;;5.10;;
5456;SDS011;2751;49.802;9.944;2023-06-14T04:47:29;5.30;;;4.77;;
5456;SDS011;2751;49.802;9.944;2023-06-14T04:49:58;7.70;;;4.77;;
5456;SDS011;2751;49.802;9.944;2023-06-14T04:52:25;10.00;;;5.57;;
5456;SDS011;2751;49.802;9.944;2023-06-14T04:54:54;7.00;;;4.43;;
5456;SDS011;2751;49.802;9.944;2023-06-14T04:57:21;9.07;;;5.10;;
5456;SDS011;2751;49.802;9.944;2023-06-14T04:59:50;6.73;;;4.70;;
5456;SDS011;2751;49.802;9.944;2023-06-14T05:02:20;6.87;;;5.10;;
5456;SDS011;2751;49.802;9.944;2023-06-14T05:04:48;7.20;;;4.63;;
5456;SDS011;2751;49.802;9.944;2023-06-14T05:07:16;8.67;;;4.40;;
5456;SDS011;2751;49.802;9.944;2023-06-14T05:09:43;6.10;;;5.00;;
5456;SDS011;2751;49.802;9.944;2023-06-14T05:12:11;5.30;;;4.80;;
5456;SDS011;2751;49.802;9.944;2023-06-14T05:14:38;5.70;;;4.80;;
5456;SDS011;2751;49.802;9.944;2023-06-14T05:17:05;8.43;;;5.53;;
5456;SDS011;2751;49.802;9.944;2023-06-14T05:19:32;13.27;;;4.80;;
5456;SDS011;2751;49.802;9.944;2023-06-14T05:21:59;6.10;;;5.10;;
5456;SDS011;2751;49.802;9.944;2023-06-14T05:24:29;5.70;;;5.17;;
5456;SDS011;2751;49.802;9.944;2023-06-14T05:26:57;5.40;;;4.90;;
5456;SDS011;2751;49.802;9.944;2023-06-14T05:29:24;4.70;;;4.33;;
5456;SDS011;2751;49.802;9.944;2023-06-14T05:31:52;6.43;;;4.83;;
5456;SDS011;2751;49.802;9.944;2023-06-14T05:34:19;5.53;;;5.03;;
5456;SDS011;2751;49.802;9.944;2023-06-14T05:36:46;5.50;;;5.00;;
5456;SDS011;2751;49.802;9.944;2023-06-14T05:39:13;7.60;;;5.60;;
5456;SDS011;2751;49.802;9.944;2023-06-14T05:41:43;6.13;;;5.20;;
5456;SDS011;2751;49.802;9.944;2023-06-14T05:44:10;5.97;;;4.90;;
5456;SDS011;2751;49.802;9.944;2023-06-14T05:46:37;5.50;;;5.00;;
5456;SDS011;2751;49.802;9.944;2023-06-14T05:49:06;6.80;;;4.90;;
5456;SDS011;2751;49.802;9.944;2023-06-14T05:51:33;5.07;;;4.70;;
5456;SDS011;2751;49.802;9.944;2023-06-14T05:54:01;5.20;;;4.70;;
5456;SDS011;2751;49.802;9.944;2023-06-14T05:56:28;7.03;;;5.53;;
5456;SDS011;2751;49.802;9.944;2023-06-14T05:58:56;5.37;;;4.87;;
5456;SDS011;2751;49.802;9.944;2023-06-14T06:01:23;5.30;;;4.80;;
5456;SDS011;2751;49.802;9.944;2023-06-14T06:03:50;9.93;;;4.83;;
5456;SDS011;2751;49.802;9.944;2023-06-14T06:06:17;6.27;;;4.77;;
5456;SDS011;2751;49.802;9.944;2023-06-14T06:08:47;4.83;;;4.40;;
5456;SDS011;2751;49.802;9.944;2023-06-14T06:11:14;5.20;;;4.80;;
5456;SDS011;2751;49.802;9.944;2023-06-14T06:13:41;5.77;;;5.17;;
5456;SDS011;2751;49.802;9.944;2023-06-14T06:16:10;6.47;;;5.30;;
5456;SDS011;2751;49.802;9.944;2023-06-14T06:18:37;8.33;;;5.30;;
5456;SDS011;2751;49.802;9.944;2023-06-14T06:21:04;9.17;;;5.33;;
5456;SDS011;2751;49.802;9.944;2023-06-14T06:23:30;5.20;;;4.50;;
5456;SDS011;2751;49.802;9.944;2023-06-14T06:25:57;8.23;;;5.10;;
5456;SDS011;2751;49.802;9.944;2023-06-14T06:28:24;9.50;;;5.73;;
5456;SDS011;2751;49.802;9.944;2023-06-14T06:30:51;4.93;;;4.43;;
5456;SDS011;2751;49.802;9.944;2023-06-14T06:33:20;13.07;;;6.33;;
5456;SDS011;2751;49.802;9.944;2023-06-14T06:35:46;7.57;;;4.80;;
5456;SDS011;2751;49.802;9.944;2023-06-14T06:38:13;5.23;;;4.60;;
5456;SDS011;2751;49.802;9.944;2023-06-14T06:40:40;6.03;;;5.10;;
5456;SDS011;2751;49.802;9.944;2023-06-14T06:43:07;6.53;;;4.57;;
5456;SDS011;2751;49.802;9.944;2023-06-14T06:45:34;5.70;;;5.30;;
5456;SDS011;2751;49.802;9.944;2023-06-14T06:48:01;7.43;;;5.83;;
5456;SDS011;2751;49.802;9.944;2023-06-14T06:50:29;5.37;;;4.87;;
5456;SDS011;2751;49.802;9.944;2023-06-14T06:52:56;6.60;;;5.20;;
5456;SDS011;2751;49.802;9.944;2023-06-14T06:55:23;5.03;;;4.60;;
5456;SDS011;2751;49.802;9.944;2023-06-14T06:57:50;6.83;;;5.53;;
5456;SDS011;2751;49.802;9.944;2023-06-14T07:00:19;8.40;;;5.17;;
5456;SDS011;2751;49.802;9.944;2023-06-14T07:02:46;9.00;;;5.43;;
5456;SDS011;2751;49.802;9.944;2023-06-14T07:05:13;6.57;;;5.30;;
5456;SDS011;2751;49.802;9.944;2023-06-14T07:07:41;6.43;;;5.60;;
5456;SDS011;2751;49.802;9.944;2023-06-14T07:10:08;6.17;;;4.80;;
5456;SDS011;2751;49.802;9.944;2023-06-14T07:12:35;6.20;;;5.60;;
5456;SDS011;2751;49.802;9.944;2023-06-14T07:15:04;5.90;;;5.10;;
5456;SDS011;2751;49.802;9.944;2023-06-14T07:17:33;5.40;;;5.00;;
5456;SDS011;2751;49.802;9.944;2023-06-14T07:20:00;9.17;;;5.30;;
5456;SDS011;2751;49.802;9.944;2023-06-14T07:22:36;5.67;;;4.73;;
5456;SDS011;2751;49.802;9.944;2023-06-14T07:25:06;8.50;;;5.17;;
5456;SDS011;2751;49.802;9.944;2023-06-14T07:27:33;6.20;;;5.60;;
5456;SDS011;2751;49.802;9.944;2023-06-14T07:30:00;5.00;;;4.60;;
5456;SDS011;2751;49.802;9.944;2023-06-14T07:32:27;7.17;;;5.00;;
5456;SDS011;2751;49.802;9.944;2023-06-14T07:41:39;6.23;;;5.73;;
5456;SDS011;2751;49.802;9.944;2023-06-14T07:44:06;6.50;;;5.13;;
5456;SDS011;2751;49.802;9.944;2023-06-14T07:46:33;6.47;;;5.50;;
5456;SDS011;2751;49.802;9.944;2023-06-14T07:49:00;5.80;;;5.27;;
5456;SDS011;2751;49.802;9.944;2023-06-14T07:51:27;5.57;;;4.87;;
5456;SDS011;2751;49.802;9.944;2023-06-14T07:53:54;5.63;;;5.07;;
5456;SDS011;2751;49.802;9.944;2023-06-14T07:56:21;5.60;;;5.00;;
5456;SDS011;2751;49.802;9.944;2023-06-14T07:58:49;6.50;;;5.10;;
5456;SDS011;2751;49.802;9.944;2023-06-14T08:01:16;5.77;;;5.20;;
5456;SDS011;2751;49.802;9.944;2023-06-14T08:03:45;5.63;;;4.60;;
5456;SDS011;2751;49.802;9.944;2023-06-14T08:06:12;5.03;;;4.53;;
5456;SDS011;2751;49.802;9.944;2023-06-14T08:08:38;8.10;;;5.30;;
5456;SDS011;2751;49.802;9.944;2023-06-14T08:11:05;5.40;;;4.90;;
5456;SDS011;2751;49.802;9.944;2023-06-14T08:13:32;7.93;;;5.47;;
5456;SDS011;2751;49.802;9.944;2023-06-14T08:16:02;11.27;;;5.10;;
5456;SDS011;2751;49.802;9.944;2023-06-14T08:18:30;5.30;;;4.83;;
5456;SDS011;2751;49.802;9.944;2023-06-14T08:20:57;5.40;;;4.90;;
5456;SDS011;2751;49.802;9.944;2023-06-14T08:23:24;5.63;;;5.00;;
5456;SDS011;2751;49.802;9.944;2023-06-14T08:25:51;5.57;;;5.07;;
5456;SDS011;2751;49.802;9.944;2023-06-14T08:28:17;10.93;;;5.10;;
5456;SDS011;2751;49.802;9.944;2023-06-14T08:30:44;6.80;;;5.00;;
5456;SDS011;2751;49.802;9.944;2023-06-14T08:33:12;5.83;;;4.93;;
5456;SDS011;2751;49.802;9.944;2023-06-14T08:35:39;6.93;;;4.80;;
5456;SDS011;2751;49.802;9.944;2023-06-14T08:38:06;5.50;;;5.00;;
5456;SDS011;2751;49.802;9.944;2023-06-14T08:40:33;10.40;;;5.00;;
5456;SDS011;2751;49.802;9.944;2023-06-14T08:43:04;5.27;;;4.80;;
5456;SDS011;2751;49.802;9.944;2023-06-14T08:45:31;5.17;;;4.77;;
5456;SDS011;2751;49.802;9.944;2023-06-14T08:47:58;6.57;;;4.80;;
5456;SDS011;2751;49.802;9.944;2023-06-14T08:50:28;5.07;;;4.33;;
5456;SDS011;2751;49.802;9.944;2023-06-14T08:52:57;9.47;;;5.50;;
5456;SDS011;2751;49.802;9.944;2023-06-14T08:55:27;5.63;;;5.00;;
5456;SDS011;2751;49.802;9.944;2023-06-14T08:57:55;5.77;;;4.97;;
5456;SDS011;2751;49.802;9.944;2023-06-14T09:00:24;5.00;;;4.60;;
5456;SDS011;2751;49.802;9.944;2023-06-14T09:02:52;4.53;;;4.13;;
5456;SDS011;2751;49.802;9.944;2023-06-14T09:05:22;8.60;;;4.67;;
5456;SDS011;2751;49.802;9.944;2023-06-14T09:07:51;4.93;;;4.53;;
5456;SDS011;2751;49.802;9.944;2023-06-14T09:10:20;4.30;;;3.90;;
5456;SDS011;2751;49.802;9.944;2023-06-14T09:12:47;9.30;;;4.60;;
5456;SDS011;2751;49.802;9.944;2023-06-14T09:15:14;4.97;;;4.00;;
5456;SDS011;2751;49.802;9.944;2023-06-14T09:17:42;6.30;;;4.23;;
5456;SDS011;2751;49.802;9.944;2023-06-14T09:20:09;6.40;;;4.40;;
5456;SDS011;2751;49.802;9.944;2023-06-14T09:22:38;4.00;;;3.70;;
5456;SDS011;2751;49.802;9.944;2023-06-14T09:25:08;4.27;;;3.50;;
5456;SDS011;2751;49.802;9.944;2023-06-14T09:27:37;4.17;;;3.63;;
5456;SDS011;2751;49.802;9.944;2023-06-14T09:30:06;4.40;;;4.00;;
5456;SDS011;2751;49.802;9.944;2023-06-14T09:32:36;4.37;;;3.97;;
5456;SDS011;2751;49.802;9.944;2023-06-14T09:35:04;4.30;;;4.00;;
5456;SDS011;2751;49.802;9.944;2023-06-14T09:37:33;8.07;;;4.07;;
5456;SDS011;2751;49.802;9.944;2023-06-14T09:40:00;4.10;;;3.80;;
5456;SDS011;2751;49.802;9.944;2023-06-14T09:42:31;4.70;;;4.00;;
5456;SDS011;2751;49.802;9.944;2023-06-14T09:45:00;6.57;;;4.17;;
5456;SDS011;2751;49.802;9.944;2023-06-14T09:47:29;3.70;;;3.40;;
5456;SDS011;2751;49.802;9.944;2023-06-14T09:49:56;5.63;;;3.80;;
5456;SDS011;2751;49.802;9.944;2023-06-14T09:52:25;4.57;;;4.10;;
5456;SDS011;2751;49.802;9.944;2023-06-14T09:54:53;5.90;;;3.80;;
5456;SDS011;2751;49.802;9.944;2023-06-14T09:57:22;4.70;;;3.50;;
5456;SDS011;2751;49.802;9.944;2023-06-14T09:59:53;5.13;;;3.83;;
5456;SDS011;2751;49.802;9.944;2023-06-14T10:02:25;7.13;;;4.20;;
5456;SDS011;2751;49.802;9.944;2023-06-14T10:04:56;4.90;;;4.50;;
5456;SDS011;2751;49.802;9.944;2023-06-14T10:07:30;8.10;;;4.00;;
5456;SDS011;2751;49.802;9.944;2023-06-14T10:10:00;4.27;;;4.07;;
5456;SDS011;2751;49.802;9.944;2023-06-14T10:12:28;4.60;;;3.97;;
5456;SDS011;2751;49.802;9.944;2023-06-14T10:14:57;4.50;;;4.10;;
5456;SDS011;2751;49.802;9.944;2023-06-14T10:17:27;4.00;;;3.67;;
5456;SDS011;2751;49.802;9.944;2023-06-14T10:20:10;5.00;;;3.50;;
5456;SDS011;2751;49.802;9.944;2023-06-14T10:22:44;5.90;;;3.67;;
5456;SDS011;2751;49.802;9.944;2023-06-14T10:25:26;3.43;;;3.23;;
5456;SDS011;2751;49.802;9.944;2023-06-14T10:28:02;5.67;;;4.50;;
5456;SDS011;2751;49.802;9.944;2023-06-14T10:30:30;5.07;;;4.00;;
5456;SDS011;2751;49.802;9.944;2023-06-14T10:33:04;3.73;;;3.40;;
5456;SDS011;2751;49.802;9.944;2023-06-14T10:35:32;7.00;;;3.50;;
5456;SDS011;2751;49.802;9.944;2023-06-14T10:38:06;3.70;;;3.10;;
5456;SDS011;2751;49.802;9.944;2023-06-14T10:40:34;3.93;;;3.53;;
5456;SDS011;2751;49.802;9.944;2023-06-14T10:43:17;3.93;;;3.50;;
5456;SDS011;2751;49.802;9.944;2023-06-14T10:48:48;4.73;;;3.60;;
5456;SDS011;2751;49.802;9.944;2023-06-14T10:51:15;7.93;;;4.10;;
5456;SDS011;2751;49.802;9.944;2023-06-14T10:53:45;4.00;;;3.60;;
5456;SDS011;2751;49.802;9.944;2023-06-14T10:56:23;3.50;;;3.30;;
5456;SDS011;2751;49.802;9.944;2023-06-14T10:58:53;7.03;;;3.80;;
5456;SDS011;2751;49.802;9.944;2023-06-14T11:01:27;3.37;;;3.07;;
5456;SDS011;2751;49.802;9.944;2023-06-14T11:04:06;4.60;;;3.50;;
5456;SDS011;2751;49.802;9.944;2023-06-14T11:06:41;7.47;;;4.47;;
5456;SDS011;2751;49.802;9.944;2023-06-14T11:09:22;4.63;;;4.20;;
5456;SDS011;2751;49.802;9.944;2023-06-14T11:12:19;4.30;;;3.73;;
5456;SDS011;2751;49.802;9.944;2023-06-14T11:14:48;6.70;;;3.43;;
5456;SDS011;2751;49.802;9.944;2023-06-14T11:17:17;4.00;;;3.70;;
5456;SDS011;2751;49.802;9.944;2023-06-14T11:19:43;3.70;;;3.13;;
5456;SDS011;2751;49.802;9.944;2023-06-14T11:22:10;3.40;;;3.20;;
5456;SDS011;2751;49.802;9.944;2023-06-14T11:24:39;3.20;;;3.00;;
5456;SDS011;2751;49.802;9.944;2023-06-14T11:27:06;3.10;;;3.00;;
5456;SDS011;2751;49.802;9.944;2023-06-14T11:29:33;2.90;;;2.70;;
5456;SDS011;2751;49.802;9.944;2023-06-14T11:32:00;2.90;;;2.70;;
5456;SDS011;2751;49.802;9.944;2023-06-14T11:34:28;4.50;;;3.30;;
5456;SDS011;2751;49.802;9.944;2023-06-14T11:36:55;2.87;;;2.67;;
5456;SDS011;2751;49.802;9.944;2023-06-14T11:39:24;2.87;;;2.63;;
5456;SDS011;2751;49.802;9.944;2023-06-14T11:41:52;2.90;;;2.80;;
5456;SDS011;2751;49.802;9.944;2023-06-14T11:44:20;2.90;;;2.57;;
5456;SDS011;2751;49.802;9.944;2023-06-14T11:46:47;2.90;;;2.70;;
5456;SDS011;2751;49.802;9.944;2023-06-14T11:49:15;2.70;;;2.50;;
5456;SDS011;2751;49.802;9.944;2023-06-14T11:51:43;2.93;;;2.73;;
5456;SDS011;2751;49.802;9.944;2023-06-14T11:54:11;3.60;;;3.23;;
5456;SDS011;2751;49.802;9.944;2023-06-14T11:56:38;3.13;;;2.87;;
5456;SDS011;2751;49.802;9.944;2023-06-14T11:59:05;6.13;;;2.40;;
5456;SDS011;2751;49.802;9.944;2023-06-14T12:01:35;5.70;;;3.07;;
5456;SDS011;2751;49.802;9.944;2023-06-14T12:04:03;2.97;;;2.60;;
5456;SDS011;2751;49.802;9.944;2023-06-14T12:06:30;2.63;;;2.43;;
5456;SDS011;2751;49.802;9.944;2023-06-14T12:09:06;2.83;;;2.50;;
5456;SDS011;2751;49.802;9.944;2023-06-14T12:11:37;3.93;;;2.80;;
5456;SDS011;2751;49.802;9.944;2023-06-14T12:14:05;3.30;;;2.40;;
5456;SDS011;2751;49.802;9.944;2023-06-14T12:16:34;2.80;;;2.60;;
5456;SDS011;2751;49.802;9.944;2023-06-14T12:19:11;3.47;;;2.37;;
5456;SDS011;2751;49.802;9.944;2023-06-14T12:21:39;2.67;;;2.57;;
5456;SDS011;2751;49.802;9.944;2023-06-14T12:24:08;2.90;;;2.70;;
5456;SDS011;2751;49.802;9.944;2023-06-14T12:26:37;4.40;;;2.23;;
5456;SDS011;2751;49.802;9.944;2023-06-14T12:29:06;2.73;;;2.53;;
5456;SDS011;2751;49.802;9.944;2023-06-14T12:31:33;2.80;;;2.60;;
5456;SDS011;2751;49.802;9.944;2023-06-14T12:34:00;2.70;;;2.43;;
5456;SDS011;2751;49.802;9.944;2023-06-14T12:36:27;4.73;;;2.50;;
5456;SDS011;2751;49.802;9.944;2023-06-14T12:38:54;2.43;;;2.33;;
5456;SDS011;2751;49.802;9.944;2023-06-14T12:41:23;2.73;;;2.60;;
5456;SDS011;2751;49.802;9.944;2023-06-14T12:43:51;2.70;;;2.60;;
5456;SDS011;2751;49.802;9.944;2023-06-14T12:46:18;3.90;;;3.57;;
5456;SDS011;2751;49.802;9.944;2023-06-14T12:48:46;3.00;;;2.77;;
5456;SDS011;2751;49.802;9.944;2023-06-14T12:51:12;2.80;;;2.60;;
5456;SDS011;2751;49.802;9.944;2023-06-14T12:53:39;3.10;;;2.90;;
5456;SDS011;2751;49.802;9.944;2023-06-14T12:56:06;2.50;;;2.40;;
5456;SDS011;2751;49.802;9.944;2023-06-14T12:58:34;3.00;;;2.80;;
5456;SDS011;2751;49.802;9.944;2023-06-14T13:01:01;2.70;;;2.47;;
5456;SDS011;2751;49.802;9.944;2023-06-14T13:03:30;3.27;;;2.53;;
5456;SDS011;2751;49.802;9.944;2023-06-14T13:05:58;2.70;;;2.50;;
5456;SDS011;2751;49.802;9.944;2023-06-14T13:08:25;2.40;;;2.30;;
5456;SDS011;2751;49.802;9.944;2023-06-14T13:10:52;4.70;;;2.40;;
5456;SDS011;2751;49.802;9.944;2023-06-14T13:13:19;2.43;;;2.23;;
5456;SDS011;2751;49.802;9.944;2023-06-14T13:15:48;5.33;;;2.70;;
5456;SDS011;2751;49.802;9.944;2023-06-14T13:18:15;2.40;;;2.23;;
5456;SDS011;2751;49.802;9.944;2023-06-14T13:20:42;2.83;;;2.63;;
5456;SDS011;2751;49.802;9.944;2023-06-14T13:23:12;2.83;;;2.63;;
5456;SDS011;2751;49.802;9.944;2023-06-14T13:25:39;4.97;;;3.57;;
5456;SDS011;2751;49.802;9.944;2023-06-14T13:28:06;2.87;;;2.67;;
5456;SDS011;2751;49.802;9.944;2023-06-14T13:30:33;2.90;;;2.80;;
5456;SDS011;2751;49.802;9.944;2023-06-14T13:33:01;3.73;;;2.60;;
5456;SDS011;2751;49.802;9.944;2023-06-14T13:35:28;2.47;;;2.30;;
5456;SDS011;2751;49.802;9.944;2023-06-14T13:37:55;2.83;;;2.70;;
5456;SDS011;2751;49.802;9.944;2023-06-14T13:40:24;4.03;;;2.73;;
5456;SDS011;2751;49.802;9.944;2023-06-14T13:42:51;2.83;;;2.27;;
5456;SDS011;2751;49.802;9.944;2023-06-14T13:45:18;6.13;;;2.30;;
5456;SDS011;2751;49.802;9.944;2023-06-14T13:47:45;4.40;;;2.40;;
5456;SDS011;2751;49.802;9.944;2023-06-14T13:50:15;2.50;;;2.33;;
5456;SDS011;2751;49.802;9.944;2023-06-14T13:52:42;2.93;;;2.73;;
5456;SDS011;2751;49.802;9.944;2023-06-14T13:55:09;2.50;;;2.30;;
5456;SDS011;2751;49.802;9.944;2023-06-14T13:57:36;2.50;;;2.30;;
5456;SDS011;2751;49.802;9.944;2023-06-14T14:00:03;3.10;;;2.60;;
5456;SDS011;2751;49.802;9.944;2023-06-14T14:02:31;5.00;;;4.60;;
5456;SDS011;2751;49.802;9.944;2023-06-14T14:04:57;2.37;;;2.17;;
5456;SDS011;2751;49.802;9.944;2023-06-14T14:07:26;3.03;;;2.73;;
5456;SDS011;2751;49.802;9.944;2023-06-14T14:09:53;5.30;;;2.40;;
5456;SDS011;2751;49.802;9.944;2023-06-14T14:12:22;4.40;;;2.60;;
5456;SDS011;2751;49.802;9.944;2023-06-14T14:14:50;2.73;;;2.53;;
5456;SDS011;2751;49.802;9.944;2023-06-14T14:17:17;2.83;;;2.33;;
5456;SDS011;2751;49.802;9.944;2023-06-14T14:19:44;7.77;;;3.03;;
5456;SDS011;2751;49.802;9.944;2023-06-14T14:22:11;3.50;;;2.43;;
5456;SDS011;2751;49.802;9.944;2023-06-14T14:24:39;2.70;;;2.40;;
5456;SDS011;2751;49.802;9.944;2023-06-14T14:27:06;2.50;;;2.30;;
5456;SDS011;2751;49.802;9.944;2023-06-14T14:29:46;3.20;;;2.90;;
5456;SDS011;2751;49.802;9.944;2023-06-14T14:32:13;3.80;;;2.70;;
5456;SDS011;2751;49.802;9.944;2023-06-14T14:34:40;3.33;;;2.97;;
5456;SDS011;2751;49.802;9.944;2023-06-14T14:37:07;7.07;;;2.40;;
5456;SDS011;2751;49.802;9.944;2023-06-14T14:39:34;2.33;;;2.13;;
5456;SDS011;2751;49.802;9.944;2023-06-14T14:42:04;2.03;;;1.93;;
5456;SDS011;2751;49.802;9.944;2023-06-14T14:44:32;2.40;;;2.30;;
5456;SDS011;2751;49.802;9.944;2023-06-14T14:46:59;2.50;;;2.23;;
5456;SDS011;2751;49.802;9.944;2023-06-14T14:49:26;1.87;;;1.77;;
5456;SDS011;2751;49.802;9.944;2023-06-14T14:51:53;2.10;;;2.00;;
5456;SDS011;2751;49.802;9.944;2023-06-14T14:54:21;2.93;;;1.97;;
5456;SDS011;2751;49.802;9.944;2023-06-14T14:56:48;4.17;;;3.97;;
5456;SDS011;2751;49.802;9.944;2023-06-14T14:59:17;2.63;;;2.43;;
5456;SDS011;2751;49.802;9.944;2023-06-14T15:01:44;2.70;;;2.30;;
5456;SDS011;2751;49.802;9.944;2023-06-14T15:04:13;2.10;;;2.00;;
5456;SDS011;2751;49.802;9.944;2023-06-14T15:06:40;5.90;;;2.60;;
5456;SDS011;2751;49.802;9.944;2023-06-14T15:09:07;2.50;;;2.40;;
5456;SDS011;2751;49.802;9.944;2023-06-14T15:11:34;3.10;;;2.77;;
5456;SDS011;2751;49.802;9.944;2023-06-14T15:14:00;5.13;;;2.67;;
5456;SDS011;2751;49.802;9.944;2023-06-14T15:16:29;3.63;;;3.10;;
5456;SDS011;2751;49.802;9.944;2023-06-14T15:18:56;2.87;;;2.67;;
5456;SDS011;2751;49.802;9.944;2023-06-14T15:21:22;4.93;;;2.60;;
5456;SDS011;2751;49.802;9.944;2023-06-14T15:23:49;3.90;;;3.60;;
5456;SDS011;2751;49.802;9.944;2023-06-14T15:26:18;2.80;;;2.60;;
5456;SDS011;2751;49.802;9.944;2023-06-14T15:28:45;2.20;;;2.10;;
5456;SDS011;2751;49.802;9.944;2023-06-14T15:31:12;2.30;;;2.20;;